Time;durP1;ratioP1;P1;durP2;ratioP2;P2;SDS_P1;SDS_P2;PMS_P1;PMS_P2;Temp;Humidity;BMP_temperature;BMP_pressure;BME280_temperature;BME280_humidity;BME280_pressure;Samples;Min_cycle;Max_cycle;Signal;HPM_P1;HPM_P2
2022/04/23 00:00:52;;;;;;;12.73;7.70;;;;;;;;;;5052050;28;20051;-75
2022/04/23 00:03:18;;;;;;;13.10;8.32;;;;;;;;;;5069073;28;20499;-74
2022/04/23 00:05:45;;;;;;;14.98;8.13;;;;;;;;;;5070497;28;20097;-75
2022/04/23 00:08:11;;;;;;;13.57;8.60;;;;;;;;;;5069907;28;20040;-75
2022/04/23 00:10:37;;;;;;;14.52;7.78;;;;;;;;;;5068507;28;20036;-74
2022/04/23 00:13:04;;;;;;;11.60;7.88;;;;;;;;;;5068488;28;20036;-76
2022/04/23 00:15:37;;;;;;;10.65;7.25;;;;;;;;;;5069105;28;20557;-74
2022/04/23 00:18:10;;;;;;;12.20;8.20;;;;;;;;;;5063658;28;20443;-74
2022/04/23 00:20:37;;;;;;;11.90;8.80;;;;;;;;;;5064832;28;20622;-75
2022/04/23 00:23:06;;;;;;;15.18;9.50;;;;;;;;;;5068665;28;20032;-77
2022/04/23 00:25:35;;;;;;;14.02;9.07;;;;;;;;;;5070274;28;20032;-78
2022/04/23 00:28:01;;;;;;;13.73;9.32;;;;;;;;;;5068158;28;20048;-77
2022/04/23 00:30:27;;;;;;;14.13;10.02;;;;;;;;;;5069985;28;20504;-80
2022/04/23 00:32:58;;;;;;;15.02;9.70;;;;;;;;;;5072570;28;20507;-79
2022/04/23 00:35:24;;;;;;;14.13;9.80;;;;;;;;;;5073400;28;20048;-81
2022/04/23 00:37:50;;;;;;;15.05;10.63;;;;;;;;;;5072625;28;20044;-81
2022/04/23 00:40:17;;;;;;;14.75;10.02;;;;;;;;;;5072560;28;20542;-79
2022/04/23 00:42:57;;;;;;;17.17;10.50;;;;;;;;;;5072846;28;20052;-79
2022/04/23 00:45:24;;;;;;;14.20;10.20;;;;;;;;;;5072283;28;20072;-77
2022/04/23 00:47:51;;;;;;;15.70;9.50;;;;;;;;;;5056246;28;20036;-79
2022/04/23 00:50:23;;;;;;;15.63;10.95;;;;;;;;;;5053166;28;20066;-78
2022/04/23 00:52:50;;;;;;;13.77;10.35;;;;;;;;;;5072160;28;20040;-79
2022/04/23 00:55:16;;;;;;;14.07;10.20;;;;;;;;;;5072074;28;20559;-79
2022/04/23 00:57:42;;;;;;;16.45;10.85;;;;;;;;;;5055010;28;20063;-79
2022/04/23 01:00:09;;;;;;;16.67;10.48;;;;;;;;;;5071497;28;20071;-80
2022/04/23 01:02:39;;;;;;;15.27;10.70;;;;;;;;;;5057634;28;20195;-81
2022/04/23 01:05:09;;;;;;;15.18;11.13;;;;;;;;;;5074256;28;20043;-81
2022/04/23 01:07:38;;;;;;;17.27;11.45;;;;;;;;;;5073974;28;20047;-82
2022/04/23 01:10:05;;;;;;;15.48;11.20;;;;;;;;;;5055455;28;20040;-77
2022/04/23 01:12:31;;;;;;;16.10;10.93;;;;;;;;;;5073958;28;20041;-79
2022/04/23 01:14:57;;;;;;;16.90;11.05;;;;;;;;;;5055374;28;20162;-79
2022/04/23 01:17:24;;;;;;;15.40;10.75;;;;;;;;;;5055617;28;20059;-77
2022/04/23 01:19:50;;;;;;;16.05;10.55;;;;;;;;;;5071050;28;20041;-77
2022/04/23 01:22:16;;;;;;;16.08;11.18;;;;;;;;;;5071285;28;20040;-80
2022/04/23 01:24:43;;;;;;;15.70;10.43;;;;;;;;;;5055187;28;20047;-80
2022/04/23 01:27:10;;;;;;;17.98;10.35;;;;;;;;;;5071614;28;20043;-81
2022/04/23 01:29:38;;;;;;;15.00;10.73;;;;;;;;;;5071704;28;20323;-79
2022/04/23 01:32:04;;;;;;;15.48;11.32;;;;;;;;;;5071308;28;20047;-77
2022/04/23 01:34:30;;;;;;;14.88;10.82;;;;;;;;;;5071835;28;20511;-77
2022/04/23 01:36:57;;;;;;;16.63;11.13;;;;;;;;;;5072525;28;20500;-81
2022/04/23 01:39:23;;;;;;;17.40;11.10;;;;;;;;;;5038782;28;20063;-79
2022/04/23 01:41:49;;;;;;;15.45;11.27;;;;;;;;;;5071447;28;20075;-77
2022/04/23 01:44:15;;;;;;;16.77;11.73;;;;;;;;;;5054885;28;20503;-78
2022/04/23 01:46:42;;;;;;;15.93;10.77;;;;;;;;;;5071371;28;20051;-80
2022/04/23 01:49:08;;;;;;;20.98;12.35;;;;;;;;;;5071258;28;20037;-81
2022/04/23 01:51:34;;;;;;;17.60;11.70;;;;;;;;;;5072564;28;20051;-78
2022/04/23 01:54:00;;;;;;;17.98;11.60;;;;;;;;;;5037711;28;20036;-79
2022/04/23 01:56:26;;;;;;;17.10;12.10;;;;;;;;;;5054714;28;20067;-81
2022/04/23 01:58:52;;;;;;;18.35;12.65;;;;;;;;;;5055249;28;20052;-78
2022/04/23 02:01:18;;;;;;;18.38;11.77;;;;;;;;;;5049592;28;20041;-79
2022/04/23 02:03:45;;;;;;;18.58;12.27;;;;;;;;;;5071509;28;20170;-75
2022/04/23 02:06:15;;;;;;;18.85;12.15;;;;;;;;;;5069743;28;20040;-77
2022/04/23 02:08:41;;;;;;;17.45;12.20;;;;;;;;;;5070928;28;20056;-77
2022/04/23 02:11:07;;;;;;;18.15;12.00;;;;;;;;;;5071892;28;20119;-74
2022/04/23 02:13:34;;;;;;;17.60;11.85;;;;;;;;;;5068354;28;20040;-77
2022/04/23 02:16:03;;;;;;;18.50;12.68;;;;;;;;;;5071047;28;20064;-76
2022/04/23 02:18:30;;;;;;;16.40;11.52;;;;;;;;;;5070231;28;20520;-77
2022/04/23 02:20:56;;;;;;;17.23;12.45;;;;;;;;;;5037069;28;20596;-75
2022/04/23 02:23:22;;;;;;;19.33;11.93;;;;;;;;;;5070683;28;20051;-76
2022/04/23 02:25:48;;;;;;;16.77;11.52;;;;;;;;;;5072280;28;20032;-80
2022/04/23 02:28:14;;;;;;;17.40;12.15;;;;;;;;;;5070265;28;20048;-77
2022/04/23 02:30:40;;;;;;;18.15;12.00;;;;;;;;;;5071347;28;20052;-79
2022/04/23 02:33:06;;;;;;;16.95;11.30;;;;;;;;;;5071008;28;20048;-79
2022/04/23 02:35:35;;;;;;;17.35;11.07;;;;;;;;;;5070706;28;20392;-81
2022/04/23 02:38:04;;;;;;;17.27;11.07;;;;;;;;;;5071717;28;20040;-78
2022/04/23 02:40:31;;;;;;;18.08;11.50;;;;;;;;;;5070061;28;20110;-77
2022/04/23 02:42:57;;;;;;;17.13;11.15;;;;;;;;;;5070037;28;20116;-81
2022/04/23 02:45:25;;;;;;;14.70;10.15;;;;;;;;;;5053669;28;20032;-81
2022/04/23 02:47:55;;;;;;;16.27;11.57;;;;;;;;;;5053857;28;20044;-76
2022/04/23 02:50:28;;;;;;;16.83;11.60;;;;;;;;;;5071285;28;20075;-81
2022/04/23 02:52:56;;;;;;;19.33;10.80;;;;;;;;;;5067477;28;20037;-78
2022/04/23 02:55:23;;;;;;;15.93;11.15;;;;;;;;;;5070630;28;20376;-78
2022/04/23 02:57:49;;;;;;;18.83;10.55;;;;;;;;;;5070040;28;20056;-80
2022/04/23 03:00:34;;;;;;;15.90;10.90;;;;;;;;;;5070074;28;20360;-82
2022/04/23 03:03:00;;;;;;;15.98;10.82;;;;;;;;;;5052824;28;20569;-78
2022/04/23 03:05:27;;;;;;;15.60;10.40;;;;;;;;;;5070191;28;20119;-82
2022/04/23 03:07:53;;;;;;;15.82;11.00;;;;;;;;;;5070225;28;20171;-78
2022/04/23 03:10:20;;;;;;;16.58;10.38;;;;;;;;;;5069432;28;20047;-77
2022/04/23 03:12:46;;;;;;;15.50;10.75;;;;;;;;;;5069949;28;20044;-79
2022/04/23 03:15:16;;;;;;;17.08;10.27;;;;;;;;;;5069398;28;20101;-79
2022/04/23 03:17:43;;;;;;;13.25;9.95;;;;;;;;;;5069538;28;20094;-80
2022/04/23 03:20:09;;;;;;;17.00;10.77;;;;;;;;;;5070002;28;20037;-77
2022/04/23 03:22:36;;;;;;;17.20;10.15;;;;;;;;;;5069444;28;20115;-77
2022/04/23 03:25:02;;;;;;;16.33;10.82;;;;;;;;;;5068456;28;20047;-77
2022/04/23 03:27:29;;;;;;;15.93;11.43;;;;;;;;;;5052651;28;20495;-77
2022/04/23 03:29:58;;;;;;;15.93;11.15;;;;;;;;;;5068440;28;20047;-81
2022/04/23 03:32:25;;;;;;;16.98;11.65;;;;;;;;;;5069219;28;20040;-79
2022/04/23 03:34:51;;;;;;;17.55;11.52;;;;;;;;;;5069122;28;20044;-79
2022/04/23 03:37:17;;;;;;;16.00;11.45;;;;;;;;;;5068831;28;20041;-79
2022/04/23 03:39:46;;;;;;;18.77;11.30;;;;;;;;;;5069563;28;20399;-78
2022/04/23 03:42:12;;;;;;;15.05;11.30;;;;;;;;;;5052068;28;20032;-79
2022/04/23 03:44:38;;;;;;;14.73;10.77;;;;;;;;;;5069369;28;20059;-77
2022/04/23 03:47:05;;;;;;;16.55;11.05;;;;;;;;;;5069063;28;20097;-78
2022/04/23 03:49:31;;;;;;;17.50;11.75;;;;;;;;;;5068304;28;20036;-76
2022/04/23 03:51:57;;;;;;;18.00;11.30;;;;;;;;;;5068744;28;20040;-79
2022/04/23 03:54:24;;;;;;;15.75;11.45;;;;;;;;;;5068883;28;20036;-80
2022/04/23 03:56:50;;;;;;;18.63;12.70;;;;;;;;;;5069066;28;20511;-80
2022/04/23 03:59:20;;;;;;;18.73;11.80;;;;;;;;;;5068650;28;20048;-81
2022/04/23 04:01:47;;;;;;;19.25;11.50;;;;;;;;;;5063156;28;20036;-81
2022/04/23 04:04:14;;;;;;;18.55;11.88;;;;;;;;;;5051049;28;20122;-78
2022/04/23 04:06:41;;;;;;;17.83;11.43;;;;;;;;;;5067405;28;20040;-79
2022/04/23 04:09:07;;;;;;;20.95;12.13;;;;;;;;;;5070054;28;20036;-77
2022/04/23 04:12:01;;;;;;;16.88;11.52;;;;;;;;;;5070100;28;20145;-77
2022/04/23 04:14:19;;;;;;;18.40;11.55;;;;;;;;;;5069013;28;20484;-82
2022/04/23 04:16:45;;;;;;;17.05;11.57;;;;;;;;;;5068676;28;20063;-77
2022/04/23 04:19:14;;;;;;;17.95;12.32;;;;;;;;;;5068276;28;20047;-77
2022/04/23 04:21:41;;;;;;;16.52;11.25;;;;;;;;;;5069828;28;20047;-80
2022/04/23 04:24:07;;;;;;;19.75;12.18;;;;;;;;;;5065679;28;20043;-81
2022/04/23 04:26:33;;;;;;;16.50;10.70;;;;;;;;;;5051988;28;20480;-79
2022/04/23 04:28:59;;;;;;;15.23;10.98;;;;;;;;;;5068610;28;20098;-77
2022/04/23 04:34:10;;;;;;;20.52;11.43;;;;;;;;;;5069722;28;20040;-77
2022/04/23 04:36:36;;;;;;;18.25;11.65;;;;;;;;;;5070121;28;20036;-77
2022/04/23 04:39:02;;;;;;;19.25;12.10;;;;;;;;;;5068572;28;20770;-77
2022/04/23 04:41:29;;;;;;;17.85;11.52;;;;;;;;;;5070113;28;20395;-81
2022/04/23 04:43:55;;;;;;;14.93;10.68;;;;;;;;;;5035931;28;20102;-80
2022/04/23 04:46:21;;;;;;;17.13;10.95;;;;;;;;;;5052165;28;20506;-78
2022/04/23 04:48:47;;;;;;;16.35;11.18;;;;;;;;;;5068391;28;20640;-78
2022/04/23 04:51:13;;;;;;;15.70;10.27;;;;;;;;;;5069286;28;20051;-81
2022/04/23 04:53:40;;;;;;;14.10;10.35;;;;;;;;;;5067933;28;20090;-78
2022/04/23 04:56:07;;;;;;;15.15;10.93;;;;;;;;;;5069558;28;20040;-78
2022/04/23 04:58:33;;;;;;;14.50;10.18;;;;;;;;;;5068402;28;20036;-79
2022/04/23 05:01:00;;;;;;;15.77;10.50;;;;;;;;;;5068708;28;20043;-81
2022/04/23 05:03:26;;;;;;;17.88;9.98;;;;;;;;;;5068851;28;20507;-81
2022/04/23 05:05:52;;;;;;;17.45;10.52;;;;;;;;;;5051685;28;20047;-75
2022/04/23 05:08:18;;;;;;;16.15;10.43;;;;;;;;;;5068951;28;20071;-77
2022/04/23 05:10:44;;;;;;;14.25;10.20;;;;;;;;;;5069806;28;20453;-75
2022/04/23 05:13:10;;;;;;;15.15;9.73;;;;;;;;;;5067980;28;20090;-75
2022/04/23 05:15:37;;;;;;;14.98;8.55;;;;;;;;;;5068045;28;20115;-76
2022/04/23 05:18:03;;;;;;;13.52;9.88;;;;;;;;;;5071480;28;20507;-76
2022/04/23 05:20:30;;;;;;;12.25;8.73;;;;;;;;;;5055410;28;20453;-75
2022/04/23 05:22:56;;;;;;;14.75;9.05;;;;;;;;;;5071618;28;20037;-76
2022/04/23 05:25:22;;;;;;;13.02;9.65;;;;;;;;;;5071937;28;20063;-75
2022/04/23 05:27:48;;;;;;;12.00;8.93;;;;;;;;;;5055434;28;20598;-74
2022/04/23 05:30:14;;;;;;;14.30;8.82;;;;;;;;;;5073175;28;20048;-80
2022/04/23 05:32:40;;;;;;;13.27;9.40;;;;;;;;;;5072953;28;20040;-75
2022/04/23 05:35:06;;;;;;;13.07;9.00;;;;;;;;;;5071777;28;20037;-75
2022/04/23 05:37:33;;;;;;;13.40;9.38;;;;;;;;;;5055474;28;20119;-76
2022/04/23 05:39:59;;;;;;;13.25;8.80;;;;;;;;;;5071174;28;20052;-75
2022/04/23 05:42:25;;;;;;;14.90;8.70;;;;;;;;;;5054438;28;20039;-79
2022/04/23 05:44:51;;;;;;;12.18;9.15;;;;;;;;;;5055107;28;20044;-75
2022/04/23 05:47:17;;;;;;;10.43;8.15;;;;;;;;;;5072591;28;20050;-75
2022/04/23 05:49:43;;;;;;;10.68;8.10;;;;;;;;;;5071572;28;20048;-80
2022/04/23 05:52:10;;;;;;;11.45;8.15;;;;;;;;;;5070945;28;20515;-78
2022/04/23 05:54:36;;;;;;;10.65;8.48;;;;;;;;;;5071687;28;20044;-81
2022/04/23 05:57:02;;;;;;;10.80;8.30;;;;;;;;;;5054469;28;20067;-78
2022/04/23 05:59:31;;;;;;;11.15;8.48;;;;;;;;;;5070916;28;20036;-79
2022/04/23 06:01:57;;;;;;;10.10;7.68;;;;;;;;;;5072031;28;20052;-78
2022/04/23 06:04:26;;;;;;;10.35;7.43;;;;;;;;;;5053905;28;20036;-76
2022/04/23 06:06:52;;;;;;;11.18;8.15;;;;;;;;;;5071602;28;20025;-79
2022/04/23 06:09:18;;;;;;;10.23;8.10;;;;;;;;;;5071417;28;20048;-80
2022/04/23 06:11:44;;;;;;;9.45;7.75;;;;;;;;;;5070932;28;20055;-80
2022/04/23 06:14:10;;;;;;;9.40;8.07;;;;;;;;;;5071279;28;20040;-79
2022/04/23 06:16:37;;;;;;;10.23;6.95;;;;;;;;;;5069782;28;20055;-78
2022/04/23 06:19:04;;;;;;;11.55;7.97;;;;;;;;;;5070370;28;20047;-80
2022/04/23 06:21:30;;;;;;;9.45;7.82;;;;;;;;;;5053488;28;20047;-79
2022/04/23 06:23:56;;;;;;;11.23;6.65;;;;;;;;;;5070191;28;20107;-82
2022/04/23 06:26:22;;;;;;;11.13;7.38;;;;;;;;;;5053756;28;20105;-77
2022/04/23 06:28:48;;;;;;;10.38;8.10;;;;;;;;;;5069495;28;20480;-81
2022/04/23 06:31:15;;;;;;;11.02;8.50;;;;;;;;;;5071683;28;20067;-79
2022/04/23 06:33:44;;;;;;;10.30;8.30;;;;;;;;;;5070253;28;20123;-80
2022/04/23 06:36:10;;;;;;;10.85;7.80;;;;;;;;;;5070293;28;20044;-79
2022/04/23 06:38:36;;;;;;;11.95;9.00;;;;;;;;;;5070271;28;20032;-79
2022/04/23 06:41:03;;;;;;;11.02;7.38;;;;;;;;;;5052601;28;20040;-80
2022/04/23 06:43:29;;;;;;;11.07;8.18;;;;;;;;;;5052730;28;20041;-77
2022/04/23 06:45:55;;;;;;;12.07;9.00;;;;;;;;;;5053515;28;20523;-79
2022/04/23 06:48:21;;;;;;;12.18;8.93;;;;;;;;;;5070799;28;20071;-80
2022/04/23 06:50:47;;;;;;;10.57;8.85;;;;;;;;;;5069860;28;20044;-78
2022/04/23 06:53:13;;;;;;;9.82;7.63;;;;;;;;;;5069471;28;20388;-78
2022/04/23 06:55:39;;;;;;;11.63;8.57;;;;;;;;;;5069723;28;20084;-81
2022/04/23 06:58:05;;;;;;;12.80;7.07;;;;;;;;;;5069276;28;20082;-77
2022/04/23 07:00:31;;;;;;;10.05;7.97;;;;;;;;;;5052874;28;20055;-80
2022/04/23 07:02:57;;;;;;;12.85;7.22;;;;;;;;;;5069463;28;20081;-77
2022/04/23 07:05:23;;;;;;;11.05;7.90;;;;;;;;;;5070994;28;20032;-78
2022/04/23 07:07:57;;;;;;;13.88;9.07;;;;;;;;;;5071022;28;20503;-76
2022/04/23 07:10:24;;;;;;;12.63;7.72;;;;;;;;;;5069043;28;20056;-82
2022/04/23 07:12:52;;;;;;;13.82;8.82;;;;;;;;;;5069376;28;20048;-80
2022/04/23 07:15:19;;;;;;;12.57;9.85;;;;;;;;;;5053312;28;20135;-79
2022/04/23 07:17:46;;;;;;;11.23;8.77;;;;;;;;;;5070491;28;20111;-79
2022/04/23 07:20:12;;;;;;;11.57;6.53;;;;;;;;;;5069185;28;20048;-78
2022/04/23 07:22:38;;;;;;;11.88;8.75;;;;;;;;;;5070484;28;20036;-78
2022/04/23 07:25:08;;;;;;;11.80;8.95;;;;;;;;;;5069710;28;20221;-78
2022/04/23 07:27:34;;;;;;;14.60;9.73;;;;;;;;;;5066520;28;20037;-77
2022/04/23 07:30:00;;;;;;;9.23;6.60;;;;;;;;;;5070449;28;20045;-77
2022/04/23 07:32:26;;;;;;;13.40;9.60;;;;;;;;;;5069908;28;20047;-80
2022/04/23 07:37:37;;;;;;;12.77;9.05;;;;;;;;;;5069378;28;20044;-82
2022/04/23 07:40:11;;;;;;;11.48;7.90;;;;;;;;;;5068288;28;20043;-77
2022/04/23 07:42:37;;;;;;;10.52;8.43;;;;;;;;;;5068744;28;20044;-78
2022/04/23 07:45:04;;;;;;;12.60;8.13;;;;;;;;;;5068301;28;20278;-79
2022/04/23 07:47:30;;;;;;;12.43;9.02;;;;;;;;;;5068777;28;20036;-80
2022/04/23 07:49:58;;;;;;;12.02;9.00;;;;;;;;;;5036323;28;20504;-86
2022/04/23 07:52:24;;;;;;;10.73;8.75;;;;;;;;;;5068439;28;20111;-79
2022/04/23 07:54:50;;;;;;;14.15;9.07;;;;;;;;;;5068713;28;20120;-80
2022/04/23 07:57:21;;;;;;;14.07;9.13;;;;;;;;;;5068341;28;20064;-83
2022/04/23 07:59:47;;;;;;;13.70;7.85;;;;;;;;;;5069271;28;20543;-77
2022/04/23 08:02:13;;;;;;;11.85;8.35;;;;;;;;;;5069787;28;20143;-81
2022/04/23 08:04:39;;;;;;;12.95;9.48;;;;;;;;;;5068559;28;20041;-78
2022/04/23 08:07:06;;;;;;;12.13;9.77;;;;;;;;;;5068524;28;20089;-82
2022/04/23 08:09:37;;;;;;;13.38;9.13;;;;;;;;;;5052280;28;20441;-80
2022/04/23 08:12:06;;;;;;;13.23;8.63;;;;;;;;;;5052006;28;20506;-83
2022/04/23 08:14:32;;;;;;;14.32;9.65;;;;;;;;;;5069682;28;20396;-80
2022/04/23 08:16:59;;;;;;;17.60;10.52;;;;;;;;;;5068846;28;20036;-78
2022/04/23 08:19:25;;;;;;;11.63;8.95;;;;;;;;;;5069489;28;20055;-79
2022/04/23 08:21:51;;;;;;;12.73;8.27;;;;;;;;;;5068635;28;20112;-77
2022/04/23 08:24:19;;;;;;;12.07;9.38;;;;;;;;;;5051683;28;20048;-85
2022/04/23 08:26:45;;;;;;;14.82;8.38;;;;;;;;;;5068756;28;20484;-82
2022/04/23 08:31:56;;;;;;;17.10;8.55;;;;;;;;;;5070209;28;20488;-79
2022/04/23 08:34:22;;;;;;;13.10;9.07;;;;;;;;;;5051375;28;20048;-80
2022/04/23 08:36:50;;;;;;;9.40;6.13;;;;;;;;;;5068871;28;20075;-80
2022/04/23 08:39:16;;;;;;;14.18;8.00;;;;;;;;;;5069458;28;20111;-78
2022/04/23 08:41:45;;;;;;;13.85;6.15;;;;;;;;;;5069699;28;20044;-80
2022/04/23 08:44:11;;;;;;;11.43;7.22;;;;;;;;;;5069100;28;20036;-81
2022/04/23 08:46:38;;;;;;;14.93;8.15;;;;;;;;;;5069893;28;20036;-83
2022/04/23 08:49:17;;;;;;;13.55;7.50;;;;;;;;;;5068013;28;20124;-78
2022/04/23 08:51:45;;;;;;;14.07;8.90;;;;;;;;;;5069788;28;20040;-78
2022/04/23 08:54:13;;;;;;;12.15;7.97;;;;;;;;;;5055298;28;20488;-80
2022/04/23 08:56:40;;;;;;;26.95;8.82;;;;;;;;;;5072582;28;20060;-78
2022/04/23 08:59:07;;;;;;;10.07;7.80;;;;;;;;;;5071980;28;20492;-79
2022/04/23 09:01:34;;;;;;;14.82;7.40;;;;;;;;;;5072322;28;20120;-79
2022/04/23 09:04:01;;;;;;;10.27;6.93;;;;;;;;;;5069976;28;20055;-80
2022/04/23 09:06:41;;;;;;;8.77;6.38;;;;;;;;;;5072412;28;20048;-79
2022/04/23 09:09:08;;;;;;;10.65;8.00;;;;;;;;;;5055481;28;20033;-78
2022/04/23 09:11:39;;;;;;;11.13;8.13;;;;;;;;;;5072487;28;20074;-82
2022/04/23 09:14:06;;;;;;;11.50;8.10;;;;;;;;;;5071614;28;20076;-83
2022/04/23 09:25:06;;;;;;;15.30;8.15;;;;;;;;;;5070919;28;20040;-72
2022/04/23 09:27:34;;;;;;;11.48;6.78;;;;;;;;;;5072049;28;20111;-81
2022/04/23 09:30:01;;;;;;;10.98;8.32;;;;;;;;;;5073321;28;20040;-81
2022/04/23 09:32:27;;;;;;;11.35;7.88;;;;;;;;;;5071773;28;20047;-82
2022/04/23 09:35:06;;;;;;;15.23;8.48;;;;;;;;;;5072161;28;20071;-81
2022/04/23 09:40:18;;;;;;;13.13;6.97;;;;;;;;;;5071678;28;20163;-79
2022/04/23 09:42:54;;;;;;;10.45;8.05;;;;;;;;;;5072404;28;20044;-80
2022/04/23 09:45:20;;;;;;;12.02;8.82;;;;;;;;;;5071339;28;20044;-79
2022/04/23 09:47:46;;;;;;;18.05;8.80;;;;;;;;;;5068955;28;20128;-79
2022/04/23 09:50:16;;;;;;;11.98;8.07;;;;;;;;;;5073009;28;20037;-81
2022/04/23 09:52:42;;;;;;;11.18;8.93;;;;;;;;;;5071767;28;20056;-78
2022/04/23 09:55:11;;;;;;;12.25;8.30;;;;;;;;;;5071919;28;20055;-73
2022/04/23 09:57:38;;;;;;;10.60;7.80;;;;;;;;;;5070780;28;20072;-79
2022/04/23 10:00:05;;;;;;;10.95;7.90;;;;;;;;;;5072280;28;20569;-82
2022/04/23 10:02:32;;;;;;;10.75;8.43;;;;;;;;;;5071210;28;20484;-79
2022/04/23 10:05:00;;;;;;;11.07;9.15;;;;;;;;;;5070438;28;20097;-81
2022/04/23 10:07:28;;;;;;;10.85;8.73;;;;;;;;;;5070670;28;20127;-82
2022/04/23 10:09:55;;;;;;;13.98;8.77;;;;;;;;;;5075211;28;20040;-78
2022/04/23 10:12:23;;;;;;;12.38;8.90;;;;;;;;;;5076072;28;20048;-77
2022/04/23 10:14:54;;;;;;;9.88;6.32;;;;;;;;;;5077907;28;20045;-79
2022/04/23 10:17:22;;;;;;;11.48;8.68;;;;;;;;;;5079290;28;20037;-82
2022/04/23 10:19:49;;;;;;;12.38;9.45;;;;;;;;;;5071964;28;20036;-82
2022/04/23 10:22:21;;;;;;;12.27;8.73;;;;;;;;;;5071227;28;20495;-83
2022/04/23 10:24:56;;;;;;;11.82;9.80;;;;;;;;;;5072129;28;20500;-82
2022/04/23 10:27:25;;;;;;;16.58;10.02;;;;;;;;;;5070359;28;20036;-83
2022/04/23 10:30:04;;;;;;;14.10;9.23;;;;;;;;;;5072263;28;20553;-82
2022/04/23 10:32:39;;;;;;;14.48;9.25;;;;;;;;;;5071029;28;20110;-83
2022/04/23 10:35:25;;;;;;;14.80;8.77;;;;;;;;;;5071522;28;20040;-79
2022/04/23 10:37:52;;;;;;;12.73;10.27;;;;;;;;;;5062746;28;20055;-81
2022/04/23 10:40:19;;;;;;;15.13;10.45;;;;;;;;;;5070367;28;20475;-82
2022/04/23 10:43:03;;;;;;;15.43;9.63;;;;;;;;;;5070402;28;20343;-79
2022/04/23 10:45:33;;;;;;;12.65;9.65;;;;;;;;;;5070815;28;20040;-79
2022/04/23 10:48:18;;;;;;;18.60;10.48;;;;;;;;;;5070833;28;20040;-78
2022/04/23 10:51:04;;;;;;;15.85;11.85;;;;;;;;;;5070604;28;20046;-78
2022/04/23 10:53:41;;;;;;;13.07;10.50;;;;;;;;;;5053629;28;20495;-81
2022/04/23 10:56:08;;;;;;;16.60;11.07;;;;;;;;;;5070008;28;20036;-81
2022/04/23 10:58:34;;;;;;;13.95;10.18;;;;;;;;;;5070530;28;20067;-79
2022/04/23 11:01:22;;;;;;;13.93;10.93;;;;;;;;;;5070028;28;20144;-78
2022/04/23 11:03:57;;;;;;;14.70;10.82;;;;;;;;;;5065568;28;20090;-83
2022/04/23 11:12:18;;;;;;;15.23;10.57;;;;;;;;;;5069335;28;20052;-82
2022/04/23 11:14:45;;;;;;;13.80;9.77;;;;;;;;;;5070303;28;20040;-78
2022/04/23 11:17:17;;;;;;;11.55;9.35;;;;;;;;;;5066321;28;20047;-83
2022/04/23 11:19:45;;;;;;;15.48;10.13;;;;;;;;;;5069559;28;20041;-79
2022/04/23 11:22:12;;;;;;;15.05;10.40;;;;;;;;;;5069623;28;20393;-80
2022/04/23 11:24:39;;;;;;;14.25;10.40;;;;;;;;;;5070924;28;20468;-83
2022/04/23 11:27:05;;;;;;;14.68;8.93;;;;;;;;;;5070627;28;20396;-79
2022/04/23 11:29:31;;;;;;;15.07;10.63;;;;;;;;;;5053074;28;20114;-80
2022/04/23 11:31:58;;;;;;;14.95;10.07;;;;;;;;;;5069428;28;20481;-82
2022/04/23 11:34:24;;;;;;;13.45;9.10;;;;;;;;;;5069423;28;20503;-81
2022/04/23 11:36:51;;;;;;;13.35;10.07;;;;;;;;;;5052656;28;20044;-82
2022/04/23 11:39:17;;;;;;;12.63;9.20;;;;;;;;;;5052500;28;20392;-81
2022/04/23 11:41:48;;;;;;;18.20;10.15;;;;;;;;;;5070849;28;20043;-81
2022/04/23 11:44:45;;;;;;;12.48;8.60;;;;;;;;;;5061515;28;20040;-80
2022/04/23 11:47:11;;;;;;;;;;;;;;;;;;5069017;28;20047;-78
2022/04/23 11:49:37;;;;;;;12.70;8.65;;;;;;;;;;5069211;28;20368;-83
2022/04/23 11:52:07;;;;;;;15.15;10.75;;;;;;;;;;5068730;28;20036;-81
2022/04/23 11:54:41;;;;;;;11.73;8.35;;;;;;;;;;5052836;28;20044;-83
2022/04/23 11:57:08;;;;;;;13.00;8.10;;;;;;;;;;5067937;28;20045;-83
2022/04/23 11:59:48;;;;;;;11.88;8.65;;;;;;;;;;5070201;28;20879;-80
2022/04/23 12:02:24;;;;;;;12.48;9.45;;;;;;;;;;5068429;28;20059;-80
2022/04/23 12:05:00;;;;;;;17.35;8.70;;;;;;;;;;5051856;28;20029;-83
2022/04/23 12:07:27;;;;;;;11.93;9.35;;;;;;;;;;5068447;28;20513;-83
2022/04/23 12:09:54;;;;;;;11.25;7.85;;;;;;;;;;5036269;28;20037;-78
2022/04/23 12:12:25;;;;;;;14.57;8.68;;;;;;;;;;5068421;28;20043;-81
2022/04/23 12:15:06;;;;;;;10.55;7.53;;;;;;;;;;5068675;28;20044;-81
2022/04/23 12:17:45;;;;;;;12.38;8.38;;;;;;;;;;5050783;28;20036;-82
2022/04/23 12:20:12;;;;;;;11.57;8.40;;;;;;;;;;5068505;28;20496;-80
2022/04/23 12:22:38;;;;;;;12.75;8.43;;;;;;;;;;5068446;28;20048;-82
2022/04/23 12:25:08;;;;;;;14.85;9.10;;;;;;;;;;5068288;28;20290;-82
2022/04/23 12:27:53;;;;;;;12.38;7.80;;;;;;;;;;5071415;28;20044;-80
2022/04/23 12:41:53;;;;;;;11.18;8.23;;;;;;;;;;5072450;28;20057;-80
2022/04/23 12:44:20;;;;;;;9.20;7.50;;;;;;;;;;5072295;28;20036;-81
2022/04/23 12:46:53;;;;;;;12.63;7.78;;;;;;;;;;5072388;28;20162;-79
2022/04/23 12:49:22;;;;;;;10.98;7.55;;;;;;;;;;5073392;28;20047;-81
2022/04/23 12:51:52;;;;;;;9.45;7.53;;;;;;;;;;5072153;28;20052;-79
2022/04/23 12:54:21;;;;;;;11.48;7.40;;;;;;;;;;5072034;28;20162;-84
2022/04/23 12:56:47;;;;;;;13.88;7.65;;;;;;;;;;5073218;28;20119;-83
2022/04/23 12:59:13;;;;;;;8.40;6.65;;;;;;;;;;5071678;28;20048;-80
2022/04/23 13:01:39;;;;;;;11.32;7.40;;;;;;;;;;5071680;28;20123;-78
2022/04/23 13:04:10;;;;;;;9.35;7.38;;;;;;;;;;5072516;28;20033;-81
2022/04/23 13:09:22;;;;;;;10.87;6.53;;;;;;;;;;5070810;28;20052;-82
2022/04/23 13:11:49;;;;;;;8.45;6.18;;;;;;;;;;5072915;28;20032;-81
2022/04/23 13:14:16;;;;;;;9.00;6.40;;;;;;;;;;5072809;28;20487;-79
2022/04/23 13:16:44;;;;;;;9.60;6.40;;;;;;;;;;5072955;28;20576;-80
2022/04/23 13:19:10;;;;;;;8.85;5.35;;;;;;;;;;5071485;28;20115;-81
2022/04/23 13:21:36;;;;;;;7.88;6.43;;;;;;;;;;5071503;28;20045;-80
2022/04/23 13:24:03;;;;;;;9.35;6.30;;;;;;;;;;5071505;28;20429;-83
2022/04/23 13:26:30;;;;;;;9.13;7.15;;;;;;;;;;5071613;28;20043;-84
2022/04/23 13:28:57;;;;;;;8.82;5.90;;;;;;;;;;5071978;28;20041;-83
2022/04/23 13:31:23;;;;;;;10.68;6.80;;;;;;;;;;5072553;28;20496;-80
2022/04/23 13:33:49;;;;;;;9.30;6.32;;;;;;;;;;5055436;28;20047;-81
2022/04/23 13:36:15;;;;;;;7.65;5.93;;;;;;;;;;5072478;28;20115;-82
2022/04/23 13:38:41;;;;;;;9.20;6.38;;;;;;;;;;5072216;28;20037;-82
2022/04/23 13:41:13;;;;;;;7.90;6.05;;;;;;;;;;5038244;28;20098;-83
2022/04/23 13:43:39;;;;;;;13.48;6.53;;;;;;;;;;5071948;28;20427;-82
2022/04/23 13:46:06;;;;;;;8.23;6.20;;;;;;;;;;5071168;28;20432;-80
2022/04/23 13:48:32;;;;;;;8.20;5.65;;;;;;;;;;5071407;28;20044;-78
2022/04/23 13:50:58;;;;;;;7.97;5.05;;;;;;;;;;5071120;28;20044;-83
2022/04/23 13:53:24;;;;;;;8.57;5.63;;;;;;;;;;5070842;28;20052;-79
2022/04/23 13:55:50;;;;;;;6.78;5.50;;;;;;;;;;5071503;28;20480;-81
2022/04/23 13:58:17;;;;;;;7.13;5.25;;;;;;;;;;5070407;28;20081;-80
2022/04/23 14:00:43;;;;;;;9.02;5.70;;;;;;;;;;5070844;28;20041;-83
2022/04/23 14:11:23;;;;;;;7.65;5.10;;;;;;;;;;5070071;28;20381;-81
2022/04/23 14:13:51;;;;;;;16.33;6.55;;;;;;;;;;5054205;28;20040;-81
2022/04/23 14:16:17;;;;;;;9.95;6.20;;;;;;;;;;5071698;28;20052;-83
2022/04/23 14:18:43;;;;;;;7.40;4.93;;;;;;;;;;5071926;28;20039;-83
2022/04/23 14:21:09;;;;;;;7.22;4.78;;;;;;;;;;5053427;28;20041;-82
2022/04/23 14:23:35;;;;;;;9.15;5.28;;;;;;;;;;5070776;28;20370;-83
2022/04/23 14:26:01;;;;;;;9.43;5.38;;;;;;;;;;5070676;28;20059;-80
2022/04/23 14:28:28;;;;;;;8.65;5.50;;;;;;;;;;5071245;28;20162;-83
2022/04/23 14:30:54;;;;;;;7.47;4.72;;;;;;;;;;5070221;28;20040;-81
2022/04/23 14:33:20;;;;;;;6.30;5.05;;;;;;;;;;5070092;28;20428;-82
2022/04/23 14:35:46;;;;;;;7.22;4.93;;;;;;;;;;5053655;28;20036;-82
2022/04/23 14:38:12;;;;;;;6.35;5.05;;;;;;;;;;5053146;28;20033;-81
2022/04/23 14:40:38;;;;;;;8.45;4.88;;;;;;;;;;5070546;28;20119;-78
2022/04/23 14:43:05;;;;;;;8.82;5.10;;;;;;;;;;5071903;28;20075;-82
2022/04/23 14:45:33;;;;;;;6.68;5.43;;;;;;;;;;5071079;28;20533;-81
2022/04/23 14:48:00;;;;;;;9.57;4.80;;;;;;;;;;5071241;28;20037;-83
2022/04/23 14:50:26;;;;;;;8.60;5.20;;;;;;;;;;5069607;28;20480;-79
2022/04/23 14:53:10;;;;;;;7.40;5.55;;;;;;;;;;5054631;28;20043;-82
2022/04/23 14:55:36;;;;;;;10.57;5.25;;;;;;;;;;5070621;28;20036;-83
2022/04/23 14:58:02;;;;;;;11.32;5.32;;;;;;;;;;5037207;28;20055;-84
2022/04/23 15:00:29;;;;;;;8.05;5.40;;;;;;;;;;5070028;28;20392;-81
2022/04/23 15:02:57;;;;;;;8.65;4.72;;;;;;;;;;5069933;28;20561;-82
2022/04/23 15:05:23;;;;;;;11.73;5.00;;;;;;;;;;5069390;28;20492;-80
2022/04/23 15:07:49;;;;;;;8.77;5.13;;;;;;;;;;5069563;28;20040;-82
2022/04/23 15:10:15;;;;;;;9.68;5.07;;;;;;;;;;5070312;28;20408;-81
2022/04/23 15:12:41;;;;;;;8.48;5.20;;;;;;;;;;5037789;28;20127;-81
2022/04/23 15:15:08;;;;;;;6.80;5.00;;;;;;;;;;5071559;28;20028;-82
2022/04/23 15:17:34;;;;;;;9.77;4.78;;;;;;;;;;5069835;28;20480;-82
2022/04/23 15:20:00;;;;;;;6.25;4.28;;;;;;;;;;5070183;28;20028;-80